Time;durP1;ratioP1;P1;durP2;ratioP2;P2;SDS_P1;SDS_P2;PMS_P1;PMS_P2;Temp;Humidity;BMP_temperature;BMP_pressure;BME280_temperature;BME280_humidity;BME280_pressure;Samples;Min_cycle;Max_cycle;Signal;HPM_P1;HPM_P2
2023/03/05 00:01:08;;;;;;;13.60;5.85;;;;;;;12.99;39.96;96084.13;5003242;28;20046;-26
2023/03/05 00:03:34;;;;;;;10.55;5.38;;;;;;;12.91;40.12;96080.94;5003457;28;20036;-27
2023/03/05 00:06:00;;;;;;;10.68;5.13;;;;;;;12.84;40.07;96073.81;5003560;28;20420;-27
2023/03/05 00:08:27;;;;;;;11.35;4.57;;;;;;;12.87;39.44;96072.13;4996704;28;20026;-27
2023/03/05 00:11:04;;;;;;;10.98;5.45;;;;;;;12.82;40.03;96073.50;4997308;28;20562;-27
2023/03/05 00:13:30;;;;;;;9.98;4.82;;;;;;;12.89;39.68;96075.19;4996835;28;20038;-26
2023/03/05 00:15:56;;;;;;;9.10;5.13;;;;;;;12.86;39.61;96071.38;4996382;28;20026;-26
2023/03/05 00:18:24;;;;;;;10.35;4.95;;;;;;;12.71;39.98;96075.91;4996526;28;20028;-26
2023/03/05 00:20:50;;;;;;;7.90;4.68;;;;;;;12.72;40.22;96076.66;5002075;28;20084;-27
2023/03/05 00:23:16;;;;;;;14.88;6.03;;;;;;;12.83;40.13;96087.88;4996899;28;20724;-27
2023/03/05 00:25:41;;;;;;;10.75;5.28;;;;;;;12.74;40.27;96083.13;4996444;28;20463;-27
2023/03/05 00:28:07;;;;;;;9.88;5.28;;;;;;;13.01;39.26;96089.88;4996538;28;20037;-26
2023/03/05 00:30:34;;;;;;;12.98;5.97;;;;;;;12.89;40.04;96088.78;4996185;28;20073;-26
2023/03/05 00:33:24;;;;;;;13.25;5.07;;;;;;;12.81;40.00;96090.28;5002023;28;20018;-26
2023/03/05 00:35:49;;;;;;;13.05;5.28;;;;;;;12.97;39.97;96090.03;5007975;28;20053;-26
2023/03/05 00:38:15;;;;;;;6.97;4.47;;;;;;;12.78;40.50;96091.16;4998564;28;20026;-26
2023/03/05 00:40:40;;;;;;;13.15;5.55;;;;;;;12.71;40.45;96086.78;4996257;28;20434;-26
2023/03/05 00:43:06;;;;;;;10.25;5.07;;;;;;;12.80;40.15;96088.75;4996011;28;20463;-26
2023/03/05 00:45:32;;;;;;;9.35;4.60;;;;;;;12.75;39.59;96083.91;4995599;28;20045;-26
2023/03/05 00:47:58;;;;;;;10.48;5.78;;;;;;;12.93;40.21;96092.13;4996018;28;20378;-26
2023/03/05 00:50:24;;;;;;;11.60;5.18;;;;;;;12.83;40.01;96082.44;5002343;28;20145;-27
2023/03/05 00:52:50;;;;;;;9.75;5.20;;;;;;;12.98;40.07;96077.94;5005691;28;20024;-27
2023/03/05 00:55:16;;;;;;;10.32;5.35;;;;;;;12.90;40.18;96076.69;4999935;28;20026;-27
2023/03/05 00:57:41;;;;;;;9.18;5.15;;;;;;;12.81;39.97;96073.94;4997794;28;20018;-27
2023/03/05 01:00:07;;;;;;;15.25;6.07;;;;;;;12.82;39.62;96084.41;5001821;28;20038;-27
2023/03/05 01:02:33;;;;;;;12.35;5.90;;;;;;;12.84;40.03;96081.22;4996019;28;20022;-26
2023/03/05 01:04:58;;;;;;;12.00;6.05;;;;;;;12.68;39.93;96079.50;4998088;28;20037;-26
2023/03/05 01:07:24;;;;;;;10.13;5.10;;;;;;;12.70;40.08;96079.81;5000434;28;20022;-27
2023/03/05 01:09:49;;;;;;;10.02;5.22;;;;;;;12.80;40.39;96075.16;5003250;28;20037;-27
2023/03/05 01:12:15;;;;;;;9.98;5.60;;;;;;;12.81;39.93;96077.44;4995608;28;20077;-27
2023/03/05 01:14:40;;;;;;;10.18;5.75;;;;;;;12.78;40.16;96069.41;4995492;28;20026;-27
2023/03/05 01:17:06;;;;;;;11.15;5.70;;;;;;;12.69;40.36;96074.81;5003606;28;20080;-27
2023/03/05 01:19:32;;;;;;;11.40;5.47;;;;;;;12.80;39.89;96065.03;4995493;28;20022;-27
2023/03/05 01:21:58;;;;;;;9.48;5.28;;;;;;;12.64;40.13;96059.84;5003269;28;20367;-27
2023/03/05 01:24:24;;;;;;;11.85;5.68;;;;;;;12.84;39.99;96059.44;4998030;28;20028;-27
2023/03/05 01:26:49;;;;;;;10.90;5.03;;;;;;;12.66;40.31;96060.16;4999355;28;20444;-27
2023/03/05 01:29:15;;;;;;;13.65;5.35;;;;;;;12.49;40.34;96065.06;4997103;28;20017;-27
2023/03/05 01:31:40;;;;;;;10.30;5.15;;;;;;;12.66;40.03;96078.44;5000903;28;20033;-27
2023/03/05 01:34:06;;;;;;;11.85;5.47;;;;;;;12.63;40.36;96068.44;4995639;28;20033;-26
2023/03/05 01:36:32;;;;;;;9.57;5.00;;;;;;;12.77;39.40;96059.72;4995617;28;20026;-27
2023/03/05 01:38:57;;;;;;;9.60;5.68;;;;;;;12.70;39.47;96051.84;5001869;28;20030;-26
2023/03/05 01:41:23;;;;;;;9.18;4.60;;;;;;;12.69;39.66;96045.66;5002177;28;20051;-26
2023/03/05 01:43:51;;;;;;;10.38;5.15;;;;;;;12.61;39.74;96041.69;5008450;28;20037;-26
2023/03/05 01:46:36;;;;;;;11.43;5.82;;;;;;;12.51;39.52;96046.34;4995220;28;20072;-26
2023/03/05 01:49:08;;;;;;;10.00;4.90;;;;;;;12.64;39.65;96042.75;4995301;28;20093;-26
2023/03/05 01:51:40;;;;;;;8.93;5.28;;;;;;;12.59;39.50;96044.88;5000958;28;20014;-27
2023/03/05 01:54:07;;;;;;;9.82;4.93;;;;;;;12.61;39.53;96046.38;5006697;28;20029;-27
2023/03/05 01:56:33;;;;;;;12.55;5.72;;;;;;;12.52;39.29;96047.09;4996938;28;20477;-27
2023/03/05 01:59:02;;;;;;;10.05;4.80;;;;;;;12.71;39.60;96031.59;5009516;28;20053;-26
2023/03/05 02:01:51;;;;;;;9.10;5.13;;;;;;;12.71;39.81;96037.81;4994713;28;20162;-27
2023/03/05 02:04:19;;;;;;;12.38;5.10;;;;;;;12.61;39.68;96038.97;4995348;28;20128;-26
2023/03/05 02:06:46;;;;;;;12.63;5.72;;;;;;;12.56;39.54;96032.16;4995257;28;20026;-27
2023/03/05 02:09:12;;;;;;;9.55;5.90;;;;;;;12.60;39.74;96037.47;5001672;28;20030;-27
2023/03/05 02:11:38;;;;;;;10.00;5.60;;;;;;;12.62;39.61;96039.72;5001492;28;20018;-26
2023/03/05 02:14:05;;;;;;;11.68;5.80;;;;;;;12.55;39.24;96036.09;5002079;28;20048;-26
2023/03/05 02:16:35;;;;;;;9.48;5.07;;;;;;;12.46;39.87;96032.56;5000265;28;20021;-26
2023/03/05 02:19:07;;;;;;;8.98;5.57;;;;;;;12.75;39.51;96034.91;4996543;28;20026;-26
2023/03/05 02:21:40;;;;;;;11.63;5.60;;;;;;;12.68;39.59;96035.22;4995002;28;20030;-27
2023/03/05 02:24:06;;;;;;;;;;;;;;;12.52;39.83;96042.41;5002622;28;20119;-27
2023/03/05 02:26:31;;;;;;;12.43;5.20;;;;;;;12.73;39.06;96029.19;5003014;28;20377;-27
2023/03/05 02:28:59;;;;;;;14.25;5.45;;;;;;;12.56;39.85;96032.16;4997992;28;20423;-27
2023/03/05 02:31:26;;;;;;;15.32;5.90;;;;;;;12.57;39.78;96033.69;4995337;28;20119;-27
2023/03/05 02:33:54;;;;;;;11.63;5.82;;;;;;;12.61;39.31;96032.78;4994843;28;20032;-27
2023/03/05 02:36:21;;;;;;;11.35;5.72;;;;;;;12.56;39.84;96031.41;5002638;28;20101;-27
2023/03/05 02:38:47;;;;;;;9.88;6.00;;;;;;;12.60;39.58;96029.31;4994908;28;20057;-27
2023/03/05 02:41:14;;;;;;;11.45;5.68;;;;;;;12.66;39.30;96024.78;5001840;28;20037;-27
2023/03/05 02:43:39;;;;;;;11.65;5.68;;;;;;;12.66;40.24;96030.22;5001426;28;20423;-27
2023/03/05 02:46:05;;;;;;;14.18;6.90;;;;;;;12.47;40.22;96021.25;4999731;28;20026;-27
2023/03/05 02:48:31;;;;;;;10.98;6.07;;;;;;;12.43;40.59;96031.50;4996482;28;20022;-27
2023/03/05 02:50:57;;;;;;;11.43;6.10;;;;;;;12.38;41.04;96026.63;4994779;28;20109;-26
2023/03/05 02:53:22;;;;;;;11.20;5.78;;;;;;;12.63;40.09;96024.91;4997691;28;20022;-26
2023/03/05 02:55:49;;;;;;;14.15;6.55;;;;;;;12.63;39.88;96030.34;5000373;28;20027;-27
2023/03/05 02:58:15;;;;;;;12.50;5.57;;;;;;;12.30;41.36;96022.69;5008533;28;20022;-27
2023/03/05 03:00:41;;;;;;;13.40;5.63;;;;;;;12.59;40.38;96025.81;5006401;28;20104;-27
2023/03/05 03:03:07;;;;;;;8.07;5.10;;;;;;;12.56;40.15;96029.44;4997992;28;20034;-27
2023/03/05 03:05:34;;;;;;;13.38;6.07;;;;;;;12.54;40.32;96028.38;4997797;28;20451;-27
2023/03/05 03:08:00;;;;;;;11.52;5.53;;;;;;;12.57;40.44;96030.97;4998624;28;20056;-26
2023/03/05 03:10:25;;;;;;;11.30;5.60;;;;;;;12.42;40.37;96021.84;4998120;28;20108;-26
2023/03/05 03:12:51;;;;;;;10.85;5.57;;;;;;;12.65;40.12;96020.53;5004998;28;20100;-27
2023/03/05 03:15:17;;;;;;;11.75;5.75;;;;;;;12.56;41.05;96020.53;5000700;28;20022;-27
2023/03/05 03:17:43;;;;;;;9.85;5.32;;;;;;;12.48;40.48;96022.78;5008478;28;20029;-27
2023/03/05 03:20:12;;;;;;;13.05;6.05;;;;;;;12.32;40.65;96016.81;4998324;28;20061;-27
2023/03/05 03:22:39;;;;;;;13.75;5.30;;;;;;;12.45;40.70;96014.75;4997683;28;20105;-27
2023/03/05 03:25:05;;;;;;;10.35;5.35;;;;;;;12.42;40.51;96016.38;4998402;28;20026;-27
2023/03/05 03:27:30;;;;;;;13.07;6.00;;;;;;;12.36;40.96;96012.75;5003079;28;20096;-26
2023/03/05 03:29:55;;;;;;;13.02;6.22;;;;;;;12.38;40.76;96009.56;5007366;28;20034;-26
2023/03/05 03:32:21;;;;;;;11.80;6.57;;;;;;;12.55;40.54;96008.13;5004729;28;20018;-27
2023/03/05 03:34:47;;;;;;;8.48;5.70;;;;;;;12.42;40.04;96013.66;5002511;28;20084;-27
2023/03/05 03:37:13;;;;;;;12.75;5.38;;;;;;;12.47;40.55;96013.09;5000328;28;20509;-26
2023/03/05 03:39:38;;;;;;;10.63;5.65;;;;;;;12.48;40.21;96014.63;4997341;28;20026;-26
2023/03/05 03:42:04;;;;;;;11.32;5.70;;;;;;;12.44;40.34;96015.94;4995974;28;20438;-26
2023/03/05 03:44:30;;;;;;;10.75;5.68;;;;;;;12.35;40.29;96016.69;4999066;28;20049;-27
2023/03/05 03:46:55;;;;;;;12.85;5.65;;;;;;;12.42;40.42;96021.06;5002746;28;20356;-27
2023/03/05 03:49:23;;;;;;;8.48;5.20;;;;;;;12.26;40.83;96013.91;5004076;28;20025;-27
2023/03/05 03:51:51;;;;;;;11.63;5.32;;;;;;;12.33;40.36;96013.66;4997304;28;20038;-27
2023/03/05 03:54:17;;;;;;;13.60;6.28;;;;;;;12.31;40.29;96010.63;4995699;28;20549;-27
2023/03/05 03:56:44;;;;;;;13.68;5.50;;;;;;;12.35;40.12;96011.25;4997835;28;20069;-27
2023/03/05 03:59:09;;;;;;;10.40;5.47;;;;;;;12.21;40.66;96011.78;5004211;28;20060;-27
2023/03/05 04:01:35;;;;;;;12.23;5.28;;;;;;;12.41;40.21;96020.31;5003481;28;20466;-27
2023/03/05 04:04:01;;;;;;;11.10;4.95;;;;;;;12.41;39.70;96019.56;4998249;28;20048;-27
2023/03/05 04:06:26;;;;;;;11.25;5.30;;;;;;;12.50;40.05;96017.63;5000953;28;20018;-26
2023/03/05 04:08:52;;;;;;;10.30;5.25;;;;;;;12.46;39.89;96022.47;4997458;28;20037;-26
2023/03/05 04:11:18;;;;;;;12.10;5.80;;;;;;;12.45;39.82;96015.50;4996450;28;20035;-26
2023/03/05 04:13:45;;;;;;;14.10;6.35;;;;;;;12.49;39.87;96015.34;4996972;28;20031;-27
2023/03/05 04:16:11;;;;;;;11.75;5.90;;;;;;;12.30;40.35;96019.97;5003676;28;20017;-26
2023/03/05 04:18:36;;;;;;;11.77;6.75;;;;;;;12.29;41.04;96014.97;5008537;28;20018;-26
2023/03/05 04:21:02;;;;;;;13.30;6.13;;;;;;;12.42;40.72;96010.19;5004996;28;20026;-26
2023/03/05 04:23:28;;;;;;;14.32;6.35;;;;;;;12.49;40.50;96016.09;4996374;28;20435;-26
2023/03/05 04:25:56;;;;;;;12.60;5.88;;;;;;;12.35;40.55;96019.41;4996387;28;20066;-27
2023/03/05 04:28:21;;;;;;;10.73;5.97;;;;;;;12.41;40.73;96025.00;4997196;28;20024;-27
2023/03/05 04:30:47;;;;;;;16.83;7.70;;;;;;;12.54;40.21;96018.25;4996333;28;20038;-26
2023/03/05 04:33:12;;;;;;;10.90;6.07;;;;;;;12.33;40.61;96010.94;4996829;28;20041;-26
2023/03/05 04:35:38;;;;;;;11.75;6.80;;;;;;;12.42;40.80;96015.63;5010033;28;20041;-26
2023/03/05 04:38:04;;;;;;;11.27;6.60;;;;;;;12.23;41.04;96010.13;5002917;28;20058;-26
2023/03/05 04:40:29;;;;;;;11.63;5.72;;;;;;;12.33;40.80;96010.16;4996703;28;20025;-27
2023/03/05 04:42:54;;;;;;;13.38;6.43;;;;;;;12.40;40.97;96016.06;4996146;28;20054;-26
2023/03/05 04:45:21;;;;;;;10.73;6.07;;;;;;;12.32;41.43;96009.41;4996639;28;20026;-27
2023/03/05 04:47:46;;;;;;;13.05;5.95;;;;;;;12.50;40.47;96014.91;4996361;28;20058;-27
2023/03/05 04:50:12;;;;;;;15.73;6.47;;;;;;;12.21;41.51;96012.53;5001960;28;20099;-27
2023/03/05 04:52:42;;;;;;;9.90;5.72;;;;;;;12.27;40.87;96018.13;4998125;28;20054;-27
2023/03/05 04:55:09;;;;;;;13.85;6.15;;;;;;;12.19;41.07;96014.19;5001157;28;20471;-26
2023/03/05 04:57:35;;;;;;;10.45;5.65;;;;;;;12.21;41.15;96017.22;4996944;28;20030;-26
2023/03/05 05:00:04;;;;;;;13.02;6.18;;;;;;;12.22;41.16;96016.03;5002285;28;20482;-27
2023/03/05 05:02:29;;;;;;;11.38;5.53;;;;;;;12.31;40.57;96015.28;4995680;28;20026;-26
2023/03/05 05:04:54;;;;;;;10.48;5.95;;;;;;;12.34;40.08;96015.16;5002726;28;20583;-27
2023/03/05 05:07:20;;;;;;;15.32;5.80;;;;;;;12.27;40.90;96020.84;5002207;28;20029;-27
2023/03/05 05:09:45;;;;;;;11.55;5.70;;;;;;;12.33;41.00;96010.94;4996175;28;20108;-27
2023/03/05 05:12:11;;;;;;;12.93;6.28;;;;;;;12.33;40.65;96010.94;4995738;28;20018;-26
2023/03/05 05:14:37;;;;;;;11.10;5.80;;;;;;;12.04;41.09;96015.91;4995330;28;20022;-26
2023/03/05 05:17:05;;;;;;;11.13;5.78;;;;;;;12.05;40.64;96014.72;5003618;28;20025;-26
2023/03/05 05:19:32;;;;;;;11.25;6.25;;;;;;;12.06;40.61;96027.09;4999992;28;20022;-26
2023/03/05 05:21:58;;;;;;;11.43;5.78;;;;;;;12.18;40.53;96023.53;4997659;28;20030;-27
2023/03/05 05:24:23;;;;;;;14.35;6.75;;;;;;;12.04;40.96;96015.91;5002431;28;20022;-26
2023/03/05 05:26:49;;;;;;;13.15;6.40;;;;;;;12.15;41.03;96013.56;4995579;28;20034;-27
2023/03/05 05:29:16;;;;;;;11.32;6.22;;;;;;;12.04;40.82;96021.34;5004900;28;20053;-27
2023/03/05 05:31:41;;;;;;;12.90;7.07;;;;;;;12.08;41.26;96017.31;4995385;28;20037;-26
2023/03/05 05:34:07;;;;;;;11.10;6.10;;;;;;;12.05;40.86;96020.16;4994418;28;20034;-26
2023/03/05 05:36:32;;;;;;;10.23;5.25;;;;;;;12.11;40.54;96018.38;5009157;28;20053;-26
2023/03/05 05:38:58;;;;;;;11.02;5.93;;;;;;;12.08;40.94;96019.28;5000718;28;20418;-26
2023/03/05 05:41:23;;;;;;;11.25;5.82;;;;;;;12.06;40.77;96016.22;4996866;28;20030;-26
2023/03/05 05:43:49;;;;;;;12.82;6.20;;;;;;;12.17;39.51;96011.16;4995293;28;20424;-26
2023/03/05 05:46:17;;;;;;;11.82;5.85;;;;;;;12.02;40.31;96019.06;4995192;28;20025;-26
2023/03/05 05:48:44;;;;;;;11.02;6.32;;;;;;;12.06;40.02;96013.50;5002747;28;20034;-26
2023/03/05 05:51:13;;;;;;;12.95;6.10;;;;;;;11.94;40.86;96017.06;4995277;28;20378;-26
2023/03/05 05:53:40;;;;;;;12.75;5.80;;;;;;;11.98;40.92;96020.44;5002156;28;20061;-27
2023/03/05 05:56:08;;;;;;;11.98;5.43;;;;;;;11.98;40.29;96023.16;5001919;28;20034;-26
2023/03/05 05:58:34;;;;;;;10.00;5.40;;;;;;;12.13;40.03;96027.59;4995890;28;20053;-26
2023/03/05 06:00:59;;;;;;;8.60;5.00;;;;;;;12.00;40.89;96023.44;4995096;28;20038;-27
2023/03/05 06:03:25;;;;;;;10.57;5.15;;;;;;;11.98;40.86;96026.63;4995098;28;20410;-26
2023/03/05 06:05:52;;;;;;;13.23;5.47;;;;;;;11.99;41.11;96027.38;4995613;28;20050;-27
2023/03/05 06:08:18;;;;;;;12.25;5.80;;;;;;;12.07;40.95;96025.91;4999034;28;20101;-27
2023/03/05 06:10:43;;;;;;;13.65;5.70;;;;;;;12.20;40.57;96032.78;4997469;28;20499;-26
2023/03/05 06:13:09;;;;;;;10.90;5.70;;;;;;;11.88;41.20;96031.22;5002258;28;20019;-27
2023/03/05 06:15:34;;;;;;;11.85;5.60;;;;;;;12.09;40.66;96029.69;4995050;28;20041;-27
2023/03/05 06:18:00;;;;;;;14.07;5.82;;;;;;;12.12;40.85;96033.47;5009712;28;20134;-26
2023/03/05 06:20:26;;;;;;;11.40;5.95;;;;;;;12.28;40.56;96027.81;4994940;28;20374;-26
2023/03/05 06:22:52;;;;;;;13.90;5.72;;;;;;;11.99;41.13;96027.38;4995012;28;20379;-26
2023/03/05 06:25:18;;;;;;;12.18;5.45;;;;;;;12.07;41.24;96028.63;5001807;28;20025;-27
2023/03/05 06:27:43;;;;;;;11.65;5.93;;;;;;;12.16;40.85;96031.38;5001952;28;20111;-26
2023/03/05 06:30:10;;;;;;;12.18;6.00;;;;;;;12.07;41.38;96034.06;5000943;28;20382;-27
2023/03/05 06:32:35;;;;;;;12.27;5.22;;;;;;;12.15;41.20;96035.31;4998724;28;20026;-27
2023/03/05 06:35:01;;;;;;;12.82;5.57;;;;;;;12.11;41.52;96034.69;5005787;28;20033;-27
2023/03/05 06:37:27;;;;;;;9.98;5.50;;;;;;;12.20;41.06;96042.88;4999233;28;20309;-27
2023/03/05 06:39:52;;;;;;;9.88;5.50;;;;;;;12.16;41.20;96032.13;5003539;28;20018;-27
2023/03/05 06:42:18;;;;;;;10.70;5.72;;;;;;;12.11;41.58;96032.72;5007660;28;20065;-26
2023/03/05 06:44:44;;;;;;;9.20;4.93;;;;;;;12.04;41.65;96032.97;5005010;28;20378;-26
2023/03/05 06:47:09;;;;;;;12.32;5.53;;;;;;;12.18;41.94;96037.13;4998721;28;20042;-27
2023/03/05 06:49:36;;;;;;;12.55;5.45;;;;;;;12.18;41.61;96045.28;4998956;28;20034;-26
2023/03/05 06:52:02;;;;;;;13.85;5.30;;;;;;;12.01;41.89;96039.31;4998294;28;20018;-26
2023/03/05 06:54:28;;;;;;;12.32;6.18;;;;;;;12.19;41.75;96042.13;4998838;28;20030;-26
2023/03/05 06:56:53;;;;;;;13.43;5.75;;;;;;;12.38;41.24;96042.19;5000414;28;20033;-26
2023/03/05 06:59:20;;;;;;;10.07;5.18;;;;;;;12.25;41.82;96055.88;5002450;28;20022;-26
2023/03/05 07:01:46;;;;;;;15.55;5.90;;;;;;;12.25;42.09;96050.44;5005167;28;20051;-26
2023/03/05 07:04:12;;;;;;;14.00;6.20;;;;;;;12.33;41.71;96049.00;4998082;28;20056;-27
2023/03/05 07:06:39;;;;;;;11.57;6.13;;;;;;;12.53;41.40;96043.94;4998233;28;20030;-27
2023/03/05 07:09:06;;;;;;;13.52;6.40;;;;;;;12.31;42.11;96048.69;4997992;28;20024;-27
2023/03/05 07:11:32;;;;;;;15.43;6.60;;;;;;;12.32;42.41;96055.63;4997855;28;20044;-26
2023/03/05 07:13:58;;;;;;;14.15;6.13;;;;;;;12.49;42.27;96059.63;5004816;28;20029;-27
2023/03/05 07:16:26;;;;;;;12.93;6.45;;;;;;;12.40;42.46;96050.66;4997087;28;20026;-27
2023/03/05 07:18:52;;;;;;;12.32;6.30;;;;;;;12.48;42.69;96052.69;4998137;28;20030;-27
2023/03/05 07:21:20;;;;;;;12.88;6.63;;;;;;;12.46;42.57;96057.06;4997764;28;20026;-27
2023/03/05 07:23:46;;;;;;;15.65;6.60;;;;;;;12.52;42.47;96056.00;4997742;28;20113;-27
2023/03/05 07:26:12;;;;;;;15.52;6.82;;;;;;;12.57;42.39;96054.69;4999196;28;20050;-26
2023/03/05 07:28:38;;;;;;;12.95;6.20;;;;;;;12.54;42.91;96067.22;5003394;28;20081;-26
2023/03/05 07:31:11;;;;;;;11.75;6.15;;;;;;;12.74;42.35;96066.06;5004418;28;20474;-26
2023/03/05 07:33:36;;;;;;;14.50;6.15;;;;;;;12.69;43.00;96058.50;5004034;28;20019;-27
2023/03/05 07:36:03;;;;;;;14.95;6.05;;;;;;;12.84;42.56;96062.94;4997295;28;20089;-27
2023/03/05 07:38:30;;;;;;;11.93;6.68;;;;;;;12.70;43.02;96062.72;5000553;28;20026;-27
2023/03/05 07:40:56;;;;;;;13.20;6.00;;;;;;;12.82;42.64;96075.47;5004687;28;20030;-27
2023/03/05 07:43:21;;;;;;;13.10;6.20;;;;;;;12.77;42.41;96076.03;5004342;28;20022;-26
2023/03/05 07:45:47;;;;;;;11.63;5.75;;;;;;;12.59;43.18;96082.97;5000121;28;20034;-27
2023/03/05 07:48:16;;;;;;;13.15;6.32;;;;;;;12.99;42.32;96084.13;5000759;28;20022;-27
2023/03/05 07:50:42;;;;;;;12.15;5.90;;;;;;;12.93;42.15;96075.81;5004447;28;20484;-27
2023/03/05 07:53:08;;;;;;;13.88;6.55;;;;;;;12.89;42.90;96069.72;4997140;28;20010;-27
2023/03/05 07:55:34;;;;;;;13.23;6.22;;;;;;;12.67;43.46;96075.25;4997753;28;20375;-27
2023/03/05 07:58:00;;;;;;;14.50;6.43;;;;;;;12.81;42.91;96073.94;4996864;28;20026;-26
2023/03/05 08:00:25;;;;;;;12.63;6.78;;;;;;;13.04;42.66;96083.53;5003350;28;20046;-27
2023/03/05 08:02:50;;;;;;;12.65;6.65;;;;;;;12.87;42.47;96074.88;5003216;28;20046;-26
2023/03/05 08:05:16;;;;;;;14.55;6.30;;;;;;;12.87;42.98;96072.91;4996953;28;20026;-27
2023/03/05 08:07:41;;;;;;;12.00;6.15;;;;;;;12.83;43.16;96072.31;4997410;28;20018;-27
2023/03/05 08:10:08;;;;;;;11.50;6.38;;;;;;;12.81;43.35;96073.94;4996986;28;20022;-27
2023/03/05 08:12:34;;;;;;;11.15;6.70;;;;;;;13.03;42.98;96077.34;4996706;28;20043;-27
2023/03/05 08:14:59;;;;;;;13.57;6.18;;;;;;;13.03;42.95;96080.06;4998071;28;20030;-27
2023/03/05 08:17:25;;;;;;;11.80;5.53;;;;;;;12.83;43.61;96072.31;5013808;28;20029;-27
2023/03/05 08:19:50;;;;;;;11.15;5.80;;;;;;;13.12;42.86;96077.34;5005690;28;20025;-27
2023/03/05 08:22:16;;;;;;;13.52;5.85;;;;;;;12.66;44.97;96075.72;4996981;28;20022;-27
2023/03/05 08:24:42;;;;;;;12.13;5.97;;;;;;;12.86;43.85;96076.81;4996445;28;20023;-27
2023/03/05 08:27:08;;;;;;;9.95;5.75;;;;;;;13.11;42.54;96080.50;4997195;28;20034;-27
2023/03/05 08:29:33;;;;;;;13.18;6.13;;;;;;;13.03;43.21;96088.22;4996483;28;20105;-27
2023/03/05 08:31:59;;;;;;;11.73;5.20;;;;;;;12.95;42.46;96071.44;5002937;28;20025;-27
2023/03/05 08:34:24;;;;;;;10.82;5.40;;;;;;;13.02;42.49;96083.97;4998197;28;20058;-27
2023/03/05 08:36:50;;;;;;;13.73;5.60;;;;;;;13.08;42.81;96076.75;5001352;28;20037;-27
2023/03/05 08:39:16;;;;;;;12.05;5.80;;;;;;;13.15;41.98;96081.16;4997237;28;20446;-27
2023/03/05 08:41:41;;;;;;;9.07;4.95;;;;;;;13.15;42.73;96081.16;5003114;28;20118;-27
2023/03/05 08:44:07;;;;;;;12.45;6.60;;;;;;;13.28;41.99;96085.28;4996227;28;20089;-27
2023/03/05 08:46:32;;;;;;;11.60;5.72;;;;;;;13.25;41.34;96085.41;4996831;28;20050;-27
2023/03/05 08:48:58;;;;;;;12.93;5.30;;;;;;;13.24;41.55;96090.09;5002297;28;20026;-27
2023/03/05 08:51:24;;;;;;;9.48;4.85;;;;;;;13.30;41.77;96088.31;5002392;28;20458;-27
2023/03/05 08:53:51;;;;;;;10.95;4.88;;;;;;;13.29;42.14;96081.34;4996160;28;20028;-27
2023/03/05 08:56:18;;;;;;;17.10;4.72;;;;;;;13.57;40.59;96082.13;4996043;28;20018;-27
2023/03/05 08:58:44;;;;;;;12.27;5.78;;;;;;;13.42;40.66;96089.38;5004119;28;20492;-27
2023/03/05 09:01:11;;;;;;;11.75;5.20;;;;;;;13.54;40.54;96082.28;4995620;28;20049;-27
2023/03/05 09:03:36;;;;;;;14.18;5.53;;;;;;;13.65;40.61;96080.59;4995525;28;20023;-27
2023/03/05 09:06:07;;;;;;;8.57;4.65;;;;;;;13.56;43.07;96088.03;5003225;28;20038;-27
2023/03/05 09:08:34;;;;;;;9.80;5.10;;;;;;;13.70;42.98;96081.22;5002310;28;20032;-27
2023/03/05 09:11:04;;;;;;;9.82;5.32;;;;;;;13.51;43.02;96080.44;4996288;28;20025;-27
2023/03/05 09:13:30;;;;;;;9.90;4.72;;;;;;;13.61;42.56;96069.09;4995803;28;20057;-27
2023/03/05 09:15:57;;;;;;;11.50;5.00;;;;;;;13.71;42.87;96069.09;4996960;28;20482;-27
2023/03/05 09:18:22;;;;;;;7.97;4.47;;;;;;;13.86;42.32;96067.25;5001798;28;20494;-27
2023/03/05 09:20:48;;;;;;;8.23;4.28;;;;;;;13.90;42.72;96068.63;5001908;28;20029;-27
2023/03/05 09:23:13;;;;;;;9.85;4.28;;;;;;;13.79;42.79;96068.34;4997428;28;20502;-27
2023/03/05 09:25:40;;;;;;;9.73;4.50;;;;;;;13.90;43.45;96071.34;5000680;28;20390;-27
2023/03/05 09:28:06;;;;;;;14.35;6.18;;;;;;;13.85;43.09;96077.41;4996320;28;20026;-27
2023/03/05 09:30:33;;;;;;;12.55;6.50;;;;;;;13.77;42.59;96073.47;4995421;28;20385;-27
2023/03/05 09:33:00;;;;;;;14.90;7.15;;;;;;;13.83;42.37;96073.63;4995280;28;20450;-27
2023/03/05 09:35:25;;;;;;;12.10;6.10;;;;;;;14.01;42.51;96079.06;4996098;28;20121;-27
2023/03/05 09:37:51;;;;;;;12.50;6.07;;;;;;;13.82;42.30;96080.31;5001735;28;20051;-27
2023/03/05 09:40:19;;;;;;;10.23;4.95;;;;;;;14.06;42.95;96069.50;5000723;28;20018;-27
2023/03/05 09:43:15;;;;;;;11.10;5.40;;;;;;;14.17;41.82;96075.25;4995070;28;20026;-27
2023/03/05 09:45:46;;;;;;;15.30;7.32;;;;;;;14.03;43.03;96074.66;5002984;28;20382;-27
2023/03/05 09:48:19;;;;;;;13.70;7.03;;;;;;;13.94;41.82;96079.38;4995337;28;20022;-27
2023/03/05 09:50:53;;;;;;;14.55;7.40;;;;;;;14.07;41.90;96066.34;5002659;28;20026;-27
2023/03/05 09:53:46;;;;;;;16.73;9.70;;;;;;;13.92;40.97;96071.66;5001449;28;20101;-27
2023/03/05 09:56:22;;;;;;;11.88;6.60;;;;;;;13.92;42.03;96074.38;5000124;28;20378;-27
2023/03/05 09:58:51;;;;;;;10.77;5.88;;;;;;;13.96;41.76;96072.25;5003248;28;20064;-27
2023/03/05 10:01:28;;;;;;;11.25;5.60;;;;;;;14.09;41.30;96066.63;4996698;28;20042;-27
2023/03/05 10:04:12;;;;;;;8.73;4.95;;;;;;;14.07;42.23;96066.34;4999732;28;20062;-27
2023/03/05 10:07:07;;;;;;;8.82;4.50;;;;;;;14.00;41.68;96067.38;4999339;28;20532;-27
2023/03/05 10:09:59;;;;;;;8.18;4.53;;;;;;;14.21;42.44;96070.41;5005129;28;20048;-27
2023/03/05 10:12:43;;;;;;;9.05;4.32;;;;;;;14.01;41.37;96066.19;5003356;28;20365;-27
2023/03/05 10:15:23;;;;;;;9.82;4.20;;;;;;;14.16;41.79;96068.28;5005188;28;20022;-27
2023/03/05 10:18:07;;;;;;;6.22;4.07;;;;;;;14.30;42.68;96073.09;5006503;28;20045;-27
2023/03/05 10:20:51;;;;;;;6.38;3.63;;;;;;;14.07;41.94;96071.78;4999073;28;20034;-27
2023/03/05 10:23:28;;;;;;;6.93;3.67;;;;;;;14.14;42.11;96065.25;5006102;28;20041;-26
2023/03/05 10:26:02;;;;;;;11.23;4.05;;;;;;;14.21;41.89;96067.66;5005079;28;20030;-26
2023/03/05 10:28:53;;;;;;;8.75;3.53;;;;;;;14.35;42.62;96065.03;5001482;28;20033;-27
2023/03/05 10:31:59;;;;;;;6.90;3.58;;;;;;;14.35;41.53;96067.00;4999689;28;20026;-27
2023/03/05 10:34:50;;;;;;;10.38;4.20;;;;;;;14.31;41.48;96069.91;4997253;28;20049;-27
2023/03/05 10:37:49;;;;;;;7.40;3.80;;;;;;;14.42;42.11;96065.97;4999380;28;20022;-27
2023/03/05 10:40:23;;;;;;;7.30;3.40;;;;;;;14.14;42.08;96068.72;4990401;28;20121;-27
2023/03/05 10:43:15;;;;;;;8.75;3.33;;;;;;;14.49;42.12;96060.16;5004661;28;20726;-27
2023/03/05 10:45:43;;;;;;;9.77;3.83;;;;;;;14.15;42.13;96062.06;5010494;28;20042;-27
2023/03/05 10:48:38;;;;;;;9.52;3.10;;;;;;;14.24;42.46;96059.31;4998178;28;20109;-27
2023/03/05 10:51:14;;;;;;;6.43;2.88;;;;;;;14.29;42.12;96066.88;4981148;28;20034;-26
2023/03/05 10:54:00;;;;;;;6.55;3.50;;;;;;;14.46;42.12;96061.88;4998905;28;20030;-26
2023/03/05 10:56:28;;;;;;;8.60;3.20;;;;;;;14.24;41.64;96066.72;5005712;28;20021;-26
2023/03/05 10:58:54;;;;;;;4.40;2.70;;;;;;;14.41;41.54;96064.44;5004518;28;20030;-27
2023/03/05 11:01:24;;;;;;;8.23;3.53;;;;;;;14.33;41.50;96062.03;5003029;28;20137;-27
2023/03/05 11:04:05;;;;;;;6.25;3.13;;;;;;;14.40;41.67;96062.94;4999325;28;20535;-27
2023/03/05 11:06:38;;;;;;;10.23;4.35;;;;;;;14.49;41.25;96058.19;4997919;28;20041;-27
2023/03/05 11:09:20;;;;;;;7.00;2.97;;;;;;;14.40;41.46;96050.06;5005602;28;20083;-27
2023/03/05 11:12:18;;;;;;;8.40;3.10;;;;;;;14.29;41.76;96055.97;4998598;28;20065;-27
2023/03/05 11:15:13;;;;;;;6.00;2.75;;;;;;;14.56;41.62;96052.41;5004235;28;20056;-27
2023/03/05 11:17:43;;;;;;;7.88;2.80;;;;;;;14.41;41.68;96046.09;5010510;28;20601;-27
2023/03/05 11:20:26;;;;;;;12.95;3.08;;;;;;;14.35;41.51;96045.94;4998617;28;20033;-27
2023/03/05 11:23:25;;;;;;;6.43;2.75;;;;;;;14.49;41.73;96041.06;5004775;28;20081;-27
2023/03/05 11:26:12;;;;;;;7.82;2.80;;;;;;;14.47;41.68;96038.78;4997675;28;20030;-27
2023/03/05 11:28:51;;;;;;;8.35;3.33;;;;;;;14.41;41.61;96034.44;5004057;28;20018;-27
2023/03/05 11:31:17;;;;;;;8.77;3.63;;;;;;;14.61;41.40;96034.66;5004626;28;20022;-26
2023/03/05 11:34:17;;;;;;;8.70;3.95;;;;;;;14.61;41.07;96027.22;5001446;28;20040;-26